Time;durP1;ratioP1;P1;durP2;ratioP2;P2;SDS_P1;SDS_P2;PMS_P1;PMS_P2;Temp;Humidity;BMP_temperature;BMP_pressure;BME280_temperature;BME280_humidity;BME280_pressure;Samples;Min_cycle;Max_cycle;Signal;HPM_P1;HPM_P2
2021/08/18 00:01:28;;;;;;;86.80;35.33;;;;;;;14.60;100.00;101693.97;5216727;28;20029;-81
2021/08/18 00:03:59;;;;;;;87.15;37.35;;;;;;;14.58;100.00;101696.03;5229623;28;20409;-81
2021/08/18 00:06:29;;;;;;;83.75;36.67;;;;;;;14.57;100.00;101697.88;5238736;28;20031;-82
2021/08/18 00:09:00;;;;;;;90.28;37.58;;;;;;;14.57;100.00;101703.28;5227190;28;20025;-81
2021/08/18 00:11:30;;;;;;;95.45;38.78;;;;;;;14.56;100.00;101696.19;5240793;28;20024;-82
2021/08/18 00:14:01;;;;;;;91.95;36.78;;;;;;;14.56;100.00;101696.19;5240898;28;20059;-82
2021/08/18 00:16:31;;;;;;;106.35;39.70;;;;;;;14.54;100.00;101703.63;5231807;28;20457;-81
2021/08/18 00:19:02;;;;;;;92.70;38.58;;;;;;;14.53;100.00;101685.72;5231598;28;20024;-82
2021/08/18 00:21:33;;;;;;;95.88;37.72;;;;;;;14.53;100.00;101696.53;5232161;28;20478;-82
2021/08/18 00:24:04;;;;;;;94.88;38.00;;;;;;;14.68;100.00;101702.06;5228105;28;20044;-81
2021/08/18 00:26:34;;;;;;;89.53;37.97;;;;;;;14.71;100.00;101699.88;5226848;28;20088;-81
2021/08/18 00:29:05;;;;;;;87.63;36.85;;;;;;;14.67;100.00;101695.84;5224718;28;20132;-81
2021/08/18 00:31:35;;;;;;;92.32;38.97;;;;;;;14.63;100.00;101696.34;5225458;28;20050;-80
2021/08/18 00:34:06;;;;;;;95.97;36.75;;;;;;;14.61;100.00;101688.44;5226472;28;20086;-80
2021/08/18 00:36:37;;;;;;;93.82;37.72;;;;;;;14.63;100.00;101697.19;5212309;28;20026;-81
2021/08/18 00:39:07;;;;;;;88.75;37.63;;;;;;;14.62;100.00;101691.97;5224803;28;20013;-81
2021/08/18 00:41:38;;;;;;;87.43;37.35;;;;;;;14.65;100.00;101699.72;5217669;28;20035;-81
2021/08/18 00:44:08;;;;;;;87.35;36.95;;;;;;;14.62;100.00;101695.50;5207093;28;20037;-81
2021/08/18 00:46:47;;;;;;;84.85;35.60;;;;;;;14.65;100.00;101695.16;5195001;28;20013;-81
2021/08/18 00:49:19;;;;;;;84.88;34.63;;;;;;;14.67;100.00;101697.69;5205684;28;20039;-83
2021/08/18 00:51:51;;;;;;;82.03;35.45;;;;;;;14.65;100.00;101695.16;5223215;28;20017;-81
2021/08/18 00:54:23;;;;;;;88.85;34.60;;;;;;;14.63;100.00;101699.88;5222777;28;20029;-81
2021/08/18 00:56:54;;;;;;;83.47;36.03;;;;;;;14.63;100.00;101696.34;5224865;28;20029;-81
2021/08/18 00:59:26;;;;;;;85.63;36.15;;;;;;;14.70;100.00;101694.63;5226761;28;20577;-81
2021/08/18 01:01:58;;;;;;;83.78;34.53;;;;;;;14.69;100.00;101690.25;5226900;28;20129;-81
2021/08/18 01:04:28;;;;;;;86.50;35.10;;;;;;;14.65;100.00;101689.75;5221903;28;20487;-82
2021/08/18 01:07:04;;;;;;;81.10;33.65;;;;;;;14.66;100.00;101694.16;5206137;28;20017;-81
2021/08/18 01:09:48;;;;;;;76.45;32.85;;;;;;;14.67;100.00;101698.53;5213033;28;20021;-81
2021/08/18 01:12:20;;;;;;;74.90;32.30;;;;;;;14.72;100.00;101696.16;5225882;28;20418;-81
2021/08/18 01:14:51;;;;;;;74.75;33.05;;;;;;;14.68;100.00;101689.41;5226375;28;20028;-81
2021/08/18 01:17:21;;;;;;;83.43;34.60;;;;;;;14.69;100.00;101693.78;5231731;28;20435;-81
2021/08/18 01:19:52;;;;;;;78.47;33.25;;;;;;;14.74;100.00;101699.50;5229460;28;20476;-81
2021/08/18 01:22:23;;;;;;;74.97;32.05;;;;;;;14.75;100.00;101695.78;5231182;28;20025;-81
2021/08/18 01:24:53;;;;;;;81.75;32.63;;;;;;;14.75;100.00;101695.78;5231522;28;20375;-82
2021/08/18 01:27:24;;;;;;;81.25;32.90;;;;;;;14.71;100.00;101696.34;5213577;28;20465;-82
2021/08/18 01:29:54;;;;;;;83.28;33.83;;;;;;;14.70;100.00;101695.47;5231308;28;20021;-81
2021/08/18 01:32:25;;;;;;;76.53;32.28;;;;;;;14.74;100.00;101695.97;5217945;28;20024;-82
2021/08/18 01:34:55;;;;;;;76.93;33.67;;;;;;;14.71;100.00;101696.34;5214031;28;20727;-82
2021/08/18 01:37:26;;;;;;;96.32;33.60;;;;;;;14.71;100.00;101691.78;5222586;28;20060;-81
2021/08/18 01:39:57;;;;;;;75.07;31.55;;;;;;;14.74;100.00;101695.97;5223746;28;20018;-81
2021/08/18 01:42:28;;;;;;;76.88;32.25;;;;;;;14.77;100.00;101704.59;5227239;28;20029;-81
2021/08/18 01:44:58;;;;;;;70.25;31.52;;;;;;;14.76;100.00;101691.25;5217490;28;20225;-81
2021/08/18 01:47:29;;;;;;;70.40;31.65;;;;;;;14.76;100.00;101692.09;5231110;28;20132;-83
2021/08/18 01:50:02;;;;;;;69.68;31.35;;;;;;;14.76;100.00;101694.81;5231221;28;20021;-82
2021/08/18 01:52:35;;;;;;;77.60;32.17;;;;;;;14.72;100.00;101689.91;5231324;28;20032;-81
2021/08/18 01:55:06;;;;;;;81.82;32.42;;;;;;;14.76;100.00;101685.88;5213096;28;20033;-81
2021/08/18 01:57:39;;;;;;;86.28;32.30;;;;;;;14.73;100.00;101689.75;5230677;28;20048;-81
2021/08/18 02:00:11;;;;;;;88.50;32.90;;;;;;;14.76;100.00;101685.88;5231448;28;20024;-81
2021/08/18 02:02:45;;;;;;;73.05;31.27;;;;;;;14.80;100.00;101692.56;5215934;28;20036;-81
2021/08/18 02:05:16;;;;;;;69.65;30.63;;;;;;;14.81;100.00;101693.41;5228965;28;20170;-82
2021/08/18 02:07:46;;;;;;;71.68;30.60;;;;;;;14.75;100.00;101693.09;5231268;28;20036;-81
2021/08/18 02:10:18;;;;;;;78.28;31.38;;;;;;;14.74;100.00;101688.72;5226649;28;20032;-82
2021/08/18 02:12:50;;;;;;;78.38;31.02;;;;;;;14.75;100.00;101685.00;5229937;28;20433;-81
2021/08/18 02:15:25;;;;;;;73.60;32.15;;;;;;;14.75;100.00;101685.00;5230859;28;20051;-81
2021/08/18 02:17:57;;;;;;;;;;;;;;;14.75;100.00;101684.16;5231936;28;20040;-81
2021/08/18 02:20:30;;;;;;;75.32;30.92;;;;;;;14.75;100.00;101685.00;5236215;28;19962;-82
2021/08/18 02:23:01;;;;;;;70.10;29.95;;;;;;;14.76;100.00;101675.06;5223793;28;20109;-81
2021/08/18 02:25:32;;;;;;;78.90;32.03;;;;;;;14.77;100.00;101677.56;5240067;28;20059;-82
2021/08/18 02:28:05;;;;;;;84.85;32.15;;;;;;;14.75;100.00;101682.28;5240996;28;20025;-81
2021/08/18 02:30:36;;;;;;;83.85;31.55;;;;;;;14.72;100.00;101676.41;5239811;28;20025;-82
2021/08/18 02:33:08;;;;;;;73.55;31.42;;;;;;;14.72;100.00;101679.94;5227561;28;20040;-82
2021/08/18 02:35:39;;;;;;;82.57;32.40;;;;;;;14.74;100.00;101686.00;5219571;28;20032;-82
2021/08/18 02:38:10;;;;;;;68.72;30.42;;;;;;;14.71;100.00;101689.06;5221229;28;20021;-82
2021/08/18 02:40:41;;;;;;;85.78;33.45;;;;;;;14.68;100.00;101694.81;5228320;28;20035;-82
2021/08/18 02:43:11;;;;;;;81.68;33.28;;;;;;;14.67;100.00;101687.72;5241829;28;20120;-82
2021/08/18 02:45:42;;;;;;;75.78;31.52;;;;;;;14.68;100.00;101683.16;5230930;28;20047;-82
2021/08/18 02:48:12;;;;;;;76.03;32.38;;;;;;;14.71;100.00;101680.13;5239269;28;20782;-82
2021/08/18 02:50:43;;;;;;;82.22;33.83;;;;;;;14.66;100.00;101685.19;5242046;28;20048;-82
2021/08/18 02:53:13;;;;;;;67.78;29.60;;;;;;;14.68;100.00;101684.00;5241352;28;20025;-82
2021/08/18 02:55:44;;;;;;;78.10;30.42;;;;;;;14.66;100.00;101683.34;5241452;28;20021;-81
2021/08/18 02:58:14;;;;;;;80.82;33.28;;;;;;;14.64;100.00;101679.97;5241383;28;20047;-81
2021/08/18 03:00:45;;;;;;;88.75;34.40;;;;;;;14.63;100.00;101680.97;5240191;28;20073;-82
2021/08/18 03:03:15;;;;;;;95.55;34.58;;;;;;;14.63;100.00;101682.84;5240900;28;20088;-81
2021/08/18 03:05:46;;;;;;;81.05;33.42;;;;;;;14.62;100.00;101673.06;5240839;28;20033;-83
2021/08/18 03:08:16;;;;;;;76.10;32.65;;;;;;;14.63;100.00;101685.53;5221091;28;20143;-81
2021/08/18 03:10:47;;;;;;;81.13;32.72;;;;;;;14.70;100.00;101684.66;5238035;28;20075;-82
2021/08/18 03:13:17;;;;;;;78.72;31.75;;;;;;;14.69;100.00;101682.16;5237952;28;20021;-82
2021/08/18 03:15:48;;;;;;;83.57;32.72;;;;;;;14.69;100.00;101680.28;5238052;28;20020;-81
2021/08/18 03:18:18;;;;;;;80.38;33.80;;;;;;;14.72;100.00;101676.41;5240773;28;20319;-83
2021/08/18 03:20:49;;;;;;;72.85;29.90;;;;;;;14.71;100.00;101677.44;5236385;28;20094;-81
2021/08/18 03:23:20;;;;;;;85.63;30.83;;;;;;;14.71;100.00;101683.69;5237911;28;20016;-81
2021/08/18 03:25:51;;;;;;;72.13;30.02;;;;;;;14.70;100.00;101684.66;5238486;28;20021;-81
2021/08/18 03:28:21;;;;;;;77.25;31.42;;;;;;;14.68;100.00;101678.59;5221393;28;20025;-81
2021/08/18 03:30:52;;;;;;;69.43;28.88;;;;;;;14.77;100.00;101676.72;5237009;28;20031;-81
2021/08/18 03:33:22;;;;;;;87.25;31.48;;;;;;;14.72;100.00;101684.50;5224090;28;20033;-81
2021/08/18 03:35:53;;;;;;;72.05;30.20;;;;;;;14.74;100.00;101680.59;5236544;28;20645;-82
2021/08/18 03:38:23;;;;;;;67.93;28.92;;;;;;;14.81;100.00;101682.59;5223444;28;20116;-81
2021/08/18 03:40:54;;;;;;;64.60;27.70;;;;;;;14.76;100.00;101675.91;5211129;28;20080;-82
2021/08/18 03:43:25;;;;;;;62.60;27.50;;;;;;;14.77;100.00;101677.56;5235261;28;20028;-81
2021/08/18 03:45:55;;;;;;;62.30;26.65;;;;;;;14.75;100.00;101685.00;5236715;28;20091;-80
2021/08/18 03:48:26;;;;;;;56.20;26.02;;;;;;;14.73;100.00;101680.78;5234152;28;20029;-81
2021/08/18 03:50:56;;;;;;;57.83;24.58;;;;;;;14.79;100.00;101674.69;5234774;28;20019;-82
2021/08/18 03:53:27;;;;;;;64.78;25.92;;;;;;;14.72;100.00;101679.94;5235822;28;20021;-81
2021/08/18 03:55:57;;;;;;;60.55;25.48;;;;;;;14.76;100.00;101683.16;5219082;28;20017;-80
2021/08/18 03:58:28;;;;;;;52.00;23.98;;;;;;;14.80;100.00;101675.53;5217682;28;20012;-82
2021/08/18 04:00:58;;;;;;;56.70;23.80;;;;;;;14.73;100.00;101680.78;5225304;28;20074;-82
2021/08/18 04:03:32;;;;;;;58.83;24.58;;;;;;;14.71;100.00;101678.28;5225031;28;20081;-80
2021/08/18 04:06:02;;;;;;;54.65;24.20;;;;;;;14.74;100.00;101671.66;5224403;28;20027;-80
2021/08/18 04:08:34;;;;;;;54.72;24.98;;;;;;;14.75;100.00;101674.19;5225297;28;20021;-80
2021/08/18 04:11:09;;;;;;;69.50;26.73;;;;;;;14.74;100.00;101669.81;5223905;28;20424;-82
2021/08/18 04:13:39;;;;;;;64.78;26.38;;;;;;;14.72;100.00;101679.94;5223445;28;20025;-80
2021/08/18 04:16:09;;;;;;;66.05;26.38;;;;;;;14.72;100.00;101682.66;5222727;28;20036;-81
2021/08/18 04:18:40;;;;;;;64.97;27.73;;;;;;;14.75;100.00;101681.44;5221425;28;20017;-80
2021/08/18 04:21:12;;;;;;;65.78;28.35;;;;;;;14.77;100.00;101679.44;5210985;28;20367;-81
2021/08/18 04:23:43;;;;;;;68.05;28.05;;;;;;;14.81;100.00;101669.97;5205001;28;20036;-81
2021/08/18 04:26:13;;;;;;;70.80;28.92;;;;;;;14.82;100.00;101678.91;5222736;28;20025;-80
2021/08/18 04:28:44;;;;;;;85.05;31.17;;;;;;;14.80;100.00;101681.78;5208635;28;20040;-80
2021/08/18 04:31:14;;;;;;;83.00;31.50;;;;;;;14.76;100.00;101678.59;5222227;28;20107;-82
2021/08/18 04:33:45;;;;;;;73.95;30.92;;;;;;;14.78;100.00;101678.41;5222748;28;20029;-81
2021/08/18 04:36:16;;;;;;;81.25;32.03;;;;;;;14.72;100.00;101684.50;5228390;28;20383;-81
2021/08/18 04:38:46;;;;;;;80.25;30.35;;;;;;;14.73;100.00;101678.09;5229474;28;20029;-80
2021/08/18 04:41:17;;;;;;;83.65;32.58;;;;;;;14.71;100.00;101680.97;5224269;28;20500;-82
2021/08/18 04:43:47;;;;;;;94.00;31.30;;;;;;;14.75;100.00;101673.34;5223873;28;20036;-81
2021/08/18 04:46:18;;;;;;;95.65;34.10;;;;;;;14.73;100.00;101670.00;5224034;28;20047;-80
2021/08/18 04:48:48;;;;;;;89.13;34.47;;;;;;;14.71;100.00;101680.97;5227374;28;20057;-80
2021/08/18 04:51:19;;;;;;;87.45;33.25;;;;;;;14.72;100.00;101676.41;5233184;28;20017;-80
2021/08/18 04:53:49;;;;;;;87.00;33.70;;;;;;;14.76;100.00;101673.19;5235882;28;20095;-82
2021/08/18 04:56:20;;;;;;;90.47;34.13;;;;;;;14.72;100.00;101682.66;5236725;28;20021;-81
2021/08/18 04:58:51;;;;;;;98.45;35.38;;;;;;;14.71;100.00;101683.69;5236520;28;20094;-81
2021/08/18 05:01:21;;;;;;;96.93;35.83;;;;;;;14.73;100.00;101680.78;5223328;28;20028;-82
2021/08/18 05:03:52;;;;;;;104.78;34.65;;;;;;;14.70;100.00;101687.38;5235671;28;20082;-83
2021/08/18 05:06:22;;;;;;;92.22;34.63;;;;;;;14.73;100.00;101684.34;5235942;28;20052;-83
2021/08/18 05:08:52;;;;;;;106.07;36.20;;;;;;;14.76;100.00;101684.00;5236247;28;20067;-83
2021/08/18 05:11:23;;;;;;;89.90;33.53;;;;;;;14.84;100.00;101684.97;5236934;28;20029;-82
2021/08/18 05:13:54;;;;;;;96.78;33.45;;;;;;;14.81;100.00;101682.59;5236771;28;20021;-81
2021/08/18 05:16:25;;;;;;;92.03;33.50;;;;;;;14.86;100.00;101683.81;5235450;28;20411;-81
2021/08/18 05:18:55;;;;;;;89.13;33.17;;;;;;;14.89;100.00;101679.91;5237597;28;20021;-81
2021/08/18 05:21:26;;;;;;;88.78;34.28;;;;;;;14.91;100.00;101676.03;5235219;28;20071;-83
2021/08/18 05:23:56;;;;;;;89.05;33.83;;;;;;;14.89;100.00;101669.94;5234376;28;20482;-82
2021/08/18 05:26:27;;;;;;;90.28;34.85;;;;;;;14.90;100.00;101665.38;5233642;28;20048;-82
2021/08/18 05:28:57;;;;;;;87.28;31.77;;;;;;;14.94;100.00;101674.81;5232236;28;20025;-82
2021/08/18 05:31:28;;;;;;;81.43;32.88;;;;;;;14.91;100.00;101677.84;5237092;28;20090;-82
2021/08/18 05:33:58;;;;;;;96.00;34.08;;;;;;;14.92;100.00;101672.28;5235968;28;20024;-80
2021/08/18 05:36:28;;;;;;;86.47;32.72;;;;;;;14.95;100.00;101676.50;5236430;28;20037;-82
2021/08/18 05:38:59;;;;;;;83.82;32.70;;;;;;;14.99;100.00;101670.56;5232044;28;20040;-81
2021/08/18 05:41:29;;;;;;;82.68;33.88;;;;;;;14.96;100.00;101675.47;5220886;28;20528;-80
2021/08/18 05:44:00;;;;;;;87.00;32.75;;;;;;;14.98;100.00;101670.75;5234467;28;20036;-83
2021/08/18 05:46:30;;;;;;;74.22;30.25;;;;;;;14.99;100.00;101675.13;5232148;28;20020;-81
2021/08/18 05:49:01;;;;;;;77.63;31.23;;;;;;;15.07;100.00;101674.25;5231426;28;20525;-81
2021/08/18 05:51:31;;;;;;;84.50;33.50;;;;;;;15.05;100.00;101669.00;5231491;28;20032;-81
2021/08/18 05:54:02;;;;;;;82.43;32.30;;;;;;;15.15;100.00;101672.34;5230120;28;20361;-82
2021/08/18 05:56:33;;;;;;;74.75;32.88;;;;;;;15.11;100.00;101673.75;5227542;28;20045;-78
2021/08/18 05:59:04;;;;;;;70.05;31.23;;;;;;;15.11;100.00;101670.16;5226987;28;20040;-79
2021/08/18 06:01:34;;;;;;;77.57;29.67;;;;;;;15.14;100.00;101678.78;5227263;28;20060;-81
2021/08/18 06:04:05;;;;;;;69.53;30.13;;;;;;;15.23;100.00;101682.28;5225657;28;20025;-78
2021/08/18 06:06:35;;;;;;;68.68;30.10;;;;;;;15.21;100.00;101677.06;5225628;28;20033;-79
2021/08/18 06:09:06;;;;;;;71.93;29.23;;;;;;;15.23;100.00;101682.28;5225130;28;20025;-79
2021/08/18 06:11:40;;;;;;;68.63;30.30;;;;;;;15.21;100.00;101668.97;5225567;28;20028;-79
2021/08/18 06:14:11;;;;;;;61.63;30.03;;;;;;;15.25;100.00;101678.38;5225228;28;20449;-79
2021/08/18 06:16:42;;;;;;;65.70;29.85;;;;;;;15.27;100.00;101684.47;5225776;28;20021;-78
2021/08/18 06:19:12;;;;;;;66.43;28.67;;;;;;;15.36;100.00;101676.28;5224875;28;20370;-81
2021/08/18 06:21:42;;;;;;;69.40;28.77;;;;;;;15.40;100.00;101674.94;5225991;28;20032;-82
2021/08/18 06:24:24;;;;;;;62.10;27.98;;;;;;;15.37;100.00;101675.31;5225945;28;20031;-81
2021/08/18 06:26:56;;;;;;;60.30;26.80;;;;;;;15.47;100.00;101682.16;5223731;28;20027;-79
2021/08/18 06:29:31;;;;;;;63.58;26.17;;;;;;;15.52;100.00;101677.06;5214080;28;20021;-80
2021/08/18 06:32:03;;;;;;;55.25;24.58;;;;;;;15.59;100.00;101679.03;5208829;28;20116;-80
2021/08/18 06:34:34;;;;;;;59.90;26.90;;;;;;;15.83;100.00;101676.19;5226249;28;20021;-81
2021/08/18 06:37:05;;;;;;;59.67;25.20;;;;;;;15.77;100.00;101674.22;5225773;28;20327;-83
2021/08/18 06:39:37;;;;;;;50.60;23.10;;;;;;;15.82;100.00;101679.94;5212734;28;20057;-80
2021/08/18 06:42:08;;;;;;;47.70;23.40;;;;;;;15.94;100.00;101683.06;5219362;28;20035;-81
2021/08/18 06:44:38;;;;;;;52.25;25.10;;;;;;;16.12;100.00;101675.47;5189025;28;20025;-80
2021/08/18 06:47:09;;;;;;;46.78;22.77;;;;;;;16.12;100.00;101680.03;5225621;28;20074;-80
2021/08/18 06:49:39;;;;;;;45.70;22.20;;;;;;;16.22;100.00;101677.91;5225530;28;20486;-80
2021/08/18 06:52:10;;;;;;;45.30;22.85;;;;;;;16.35;100.00;101677.28;5226048;28;20370;-83
2021/08/18 06:54:41;;;;;;;43.83;21.40;;;;;;;16.45;100.00;101672.44;5224212;28;20028;-80
2021/08/18 06:57:11;;;;;;;35.47;19.95;;;;;;;16.67;100.00;101676.97;5225547;28;20063;-80
2021/08/18 06:59:42;;;;;;;36.88;20.48;;;;;;;16.81;100.00;101672.56;5224974;28;20043;-81
2021/08/18 07:02:12;;;;;;;34.20;18.95;;;;;;;16.87;100.00;101677.28;5212477;28;20103;-80
2021/08/18 07:04:42;;;;;;;35.03;18.35;;;;;;;16.88;100.00;101670.81;5224059;28;20025;-80
2021/08/18 07:07:13;;;;;;;41.53;18.52;;;;;;;16.96;100.00;101675.28;5224925;28;20051;-80
2021/08/18 07:09:43;;;;;;;34.25;18.25;;;;;;;16.68;100.00;101683.22;5224674;28;20139;-81
2021/08/18 07:12:14;;;;;;;38.85;18.55;;;;;;;16.88;100.00;101686.25;5224673;28;20398;-84
2021/08/18 07:14:44;;;;;;;36.47;20.60;;;;;;;16.83;100.00;101671.38;5224748;28;20477;-81
2021/08/18 07:17:15;;;;;;;34.10;19.25;;;;;;;16.91;100.00;101678.56;5224105;28;20048;-82
2021/08/18 07:19:45;;;;;;;36.00;18.52;;;;;;;17.15;100.00;101679.28;5214094;28;20467;-81
2021/08/18 07:22:16;;;;;;;31.60;17.05;;;;;;;17.22;100.00;101675.66;5221584;28;20032;-83
2021/08/18 07:24:46;;;;;;;32.65;17.60;;;;;;;17.21;100.00;101671.22;5224852;28;20501;-79
2021/08/18 07:27:18;;;;;;;33.47;17.05;;;;;;;17.15;100.00;101680.13;5224322;28;20040;-81
2021/08/18 07:29:49;;;;;;;28.60;16.67;;;;;;;17.25;100.00;101683.38;5223777;28;20800;-81
2021/08/18 07:32:19;;;;;;;29.17;15.40;;;;;;;17.45;100.00;101680.06;5223699;28;20254;-80
2021/08/18 07:34:50;;;;;;;31.38;15.63;;;;;;;17.50;100.00;101683.03;5210308;28;20025;-82
2021/08/18 07:37:22;;;;;;;31.95;16.90;;;;;;;17.38;100.00;101681.88;5223577;28;20119;-80
2021/08/18 07:39:54;;;;;;;30.13;16.08;;;;;;;17.27;100.00;101689.47;5221047;28;20035;-82
2021/08/18 07:42:25;;;;;;;27.83;15.90;;;;;;;17.25;100.00;101691.50;5218952;28;20036;-81
2021/08/18 07:44:56;;;;;;;26.45;14.85;;;;;;;17.27;100.00;101694.03;5205493;28;20026;-81
2021/08/18 07:47:26;;;;;;;28.42;15.75;;;;;;;17.28;100.00;101684.88;5213386;28;20055;-82
2021/08/18 07:49:57;;;;;;;26.60;14.93;;;;;;;17.43;100.00;101691.13;5217510;28;20039;-82
2021/08/18 07:52:27;;;;;;;26.13;14.55;;;;;;;17.53;100.00;101686.22;5215022;28;21397;-82
2021/08/18 07:54:58;;;;;;;25.63;13.30;;;;;;;17.54;100.00;101685.19;5225927;28;20429;-80
2021/08/18 07:57:28;;;;;;;29.20;15.40;;;;;;;17.63;100.00;101685.91;5228406;28;20102;-83
2021/08/18 07:59:59;;;;;;;25.42;14.02;;;;;;;17.57;100.00;101684.81;5231817;28;20021;-85
2021/08/18 08:02:29;;;;;;;23.50;11.32;;;;;;;17.78;100.00;101686.72;5228818;28;20021;-82
2021/08/18 08:05:04;;;;;;;22.45;12.55;;;;;;;17.86;100.00;101683.03;5226844;28;20053;-81
2021/08/18 08:07:35;;;;;;;24.35;12.25;;;;;;;17.84;100.00;101682.41;5227377;28;20082;-82
2021/08/18 08:10:08;;;;;;;18.60;12.18;;;;;;;17.95;100.00;101681.88;5228708;28;20013;-81
2021/08/18 08:12:39;;;;;;;25.90;11.98;;;;;;;18.07;100.00;101680.31;5227556;28;20044;-82
2021/08/18 08:15:10;;;;;;;25.80;13.27;;;;;;;17.92;100.00;101681.41;5227218;28;20025;-82
2021/08/18 08:17:41;;;;;;;21.58;13.15;;;;;;;18.02;100.00;101681.91;5228399;28;20092;-81
2021/08/18 08:20:12;;;;;;;25.98;12.85;;;;;;;17.96;100.00;101680.84;5231952;28;20060;-83
2021/08/18 08:22:42;;;;;;;20.35;11.73;;;;;;;18.18;100.00;101694.41;5230608;28;20048;-82
2021/08/18 08:25:13;;;;;;;22.73;11.00;;;;;;;18.25;100.00;101681.72;5227798;28;20025;-81
2021/08/18 08:27:43;;;;;;;18.00;11.05;;;;;;;18.43;100.00;101694.81;5227330;28;20020;-82
2021/08/18 08:30:14;;;;;;;21.65;11.30;;;;;;;18.59;100.00;101679.03;5225304;28;20025;-83
2021/08/18 08:32:44;;;;;;;16.83;10.85;;;;;;;18.70;100.00;101685.84;5217033;28;20346;-84
2021/08/18 08:35:15;;;;;;;20.92;10.73;;;;;;;18.79;100.00;101686.53;5214345;28;20483;-81
2021/08/18 08:37:46;;;;;;;18.58;10.70;;;;;;;18.99;100.00;101681.19;5228251;28;20398;-81
2021/08/18 08:40:16;;;;;;;18.83;11.82;;;;;;;18.80;100.00;101683.59;5208745;28;20029;-81
2021/08/18 08:42:48;;;;;;;22.48;10.73;;;;;;;18.73;100.00;101690.88;5226626;28;20029;-82
2021/08/18 08:45:19;;;;;;;16.38;10.88;;;;;;;18.79;100.00;101686.53;5228454;28;20029;-81
2021/08/18 08:47:49;;;;;;;19.02;10.18;;;;;;;18.85;100.00;101678.41;5211520;28;20121;-81
2021/08/18 08:50:20;;;;;;;17.05;10.27;;;;;;;18.93;100.00;101682.84;5215497;28;20025;-82
2021/08/18 08:52:51;;;;;;;20.77;10.93;;;;;;;19.05;100.00;101683.09;5230445;28;20245;-82
2021/08/18 08:55:21;;;;;;;18.85;11.00;;;;;;;19.00;100.00;101680.16;5229419;28;20032;-81
2021/08/18 08:57:56;;;;;;;19.83;11.32;;;;;;;19.02;100.00;101683.50;5226894;28;20024;-82
2021/08/18 09:00:27;;;;;;;16.85;10.43;;;;;;;18.96;100.00;101685.13;5220803;28;20013;-82
2021/08/18 09:03:11;;;;;;;19.13;10.45;;;;;;;19.11;100.00;101685.84;5232510;28;20036;-82
2021/08/18 09:05:43;;;;;;;19.80;11.00;;;;;;;19.46;100.00;101685.75;5247583;28;20035;-83
2021/08/18 09:08:17;;;;;;;16.95;11.18;;;;;;;19.76;100.00;101685.47;5226797;28;20025;-79
2021/08/18 09:11:08;;;;;;;24.08;11.32;;;;;;;19.87;100.00;101690.28;5225617;28;20500;-80
2021/08/18 09:13:40;;;;;;;19.27;10.55;;;;;;;19.72;100.00;101686.91;5226188;28;20061;-81
2021/08/18 09:16:11;;;;;;;16.30;9.43;;;;;;;19.97;100.00;101688.00;5223985;28;20084;-82
2021/08/18 09:18:51;;;;;;;17.73;10.23;;;;;;;19.90;100.00;101687.16;5213334;28;20025;-81
2021/08/18 09:21:36;;;;;;;16.48;10.80;;;;;;;19.64;100.00;101688.78;5228326;28;20476;-82
2021/08/18 09:24:25;;;;;;;18.38;10.63;;;;;;;19.60;100.00;101683.97;5228723;28;20071;-81
2021/08/18 09:27:10;;;;;;;14.57;10.23;;;;;;;19.66;100.00;101681.25;5228095;28;20060;-80
2021/08/18 09:29:48;;;;;;;16.00;10.65;;;;;;;19.51;100.00;101680.56;5227566;28;20300;-81
2021/08/18 09:32:25;;;;;;;18.55;10.43;;;;;;;19.70;100.00;101678.97;5229296;28;20040;-81
2021/08/18 09:34:59;;;;;;;15.85;9.93;;;;;;;19.63;100.00;101681.69;5227371;28;20068;-81
2021/08/18 09:37:31;;;;;;;13.45;10.15;;;;;;;19.66;100.00;101680.41;5216101;28;20036;-81
2021/08/18 09:40:15;;;;;;;19.25;10.43;;;;;;;19.65;100.00;101679.56;5218164;28;20130;-81
2021/08/18 09:42:46;;;;;;;15.45;10.32;;;;;;;19.74;100.00;101677.50;5230706;28;20029;-80
2021/08/18 09:45:25;;;;;;;12.77;9.70;;;;;;;19.99;100.00;101672.31;5218148;28;20124;-80
2021/08/18 09:48:04;;;;;;;14.27;10.10;;;;;;;19.84;100.00;101675.22;5229984;28;20033;-82
2021/08/18 09:50:41;;;;;;;16.58;10.07;;;;;;;19.52;100.00;101673.22;5231640;28;20107;-80
2021/08/18 09:53:15;;;;;;;17.75;10.38;;;;;;;19.53;100.00;101666.72;5234058;28;20032;-81
2021/08/18 09:55:55;;;;;;;19.52;9.90;;;;;;;19.53;100.00;101674.91;5232034;28;20473;-82
2021/08/18 09:58:35;;;;;;;15.68;10.05;;;;;;;19.02;100.00;101668.00;5224242;28;20025;-81
2021/08/18 10:01:10;;;;;;;16.90;10.30;;;;;;;18.55;100.00;101672.31;5233149;28;20044;-80
2021/08/18 10:03:43;;;;;;;18.52;10.48;;;;;;;18.46;100.00;101668.06;5234538;28;20398;-80
2021/08/18 10:06:14;;;;;;;16.13;10.45;;;;;;;18.43;100.00;101668.50;5227860;28;20375;-80
2021/08/18 10:08:46;;;;;;;20.00;11.07;;;;;;;18.49;100.00;101670.41;5226655;28;20083;-80
2021/08/18 10:11:18;;;;;;;15.23;10.52;;;;;;;18.71;100.00;101662.22;5245789;28;20504;-79
2021/08/18 10:13:49;;;;;;;16.35;10.43;;;;;;;18.98;100.00;101661.31;5235885;28;20100;-81
2021/08/18 10:16:20;;;;;;;18.38;10.80;;;;;;;19.24;100.00;101657.88;5232449;28;20041;-87
2021/08/18 10:18:55;;;;;;;16.70;10.88;;;;;;;19.31;100.00;101664.16;5219786;28;20025;-83
2021/08/18 10:21:28;;;;;;;15.98;10.32;;;;;;;19.35;100.00;101665.44;5232582;28;20052;-82
2021/08/18 10:24:03;;;;;;;21.65;10.82;;;;;;;19.62;100.00;101669.09;5230987;28;20025;-82
2021/08/18 10:26:34;;;;;;;16.30;10.63;;;;;;;19.54;100.00;101663.81;5234166;28;20025;-81
2021/08/18 10:29:11;;;;;;;19.45;10.55;;;;;;;19.61;100.00;101663.84;5235047;28;20454;-81
2021/08/18 10:31:42;;;;;;;14.52;10.40;;;;;;;19.50;100.00;101659.00;5239121;28;20377;-81
2021/08/18 10:34:22;;;;;;;22.35;10.70;;;;;;;19.38;100.00;101669.66;5234188;28;20562;-83
2021/08/18 10:36:56;;;;;;;15.27;10.13;;;;;;;19.46;100.00;101658.56;5231696;28;20445;-81
2021/08/18 10:39:28;;;;;;;23.85;11.88;;;;;;;19.34;100.00;101655.59;5229388;28;20021;-80
2021/08/18 10:42:06;;;;;;;19.75;10.77;;;;;;;19.32;100.00;101657.66;5219405;28;20059;-81
2021/08/18 10:44:46;;;;;;;20.15;11.15;;;;;;;19.47;100.00;101660.22;5225120;28;20033;-82
2021/08/18 10:47:32;;;;;;;20.02;11.07;;;;;;;19.52;100.00;101660.44;5225271;28;20029;-80
2021/08/18 10:50:12;;;;;;;17.40;11.93;;;;;;;19.80;100.00;101662.22;5224293;28;20136;-80
2021/08/18 10:52:42;;;;;;;17.30;10.73;;;;;;;19.91;100.00;101656.16;5211031;28;20124;-81
2021/08/18 10:55:17;;;;;;;15.05;11.07;;;;;;;19.94;100.00;101661.19;5216633;28;20152;-80
2021/08/18 10:57:49;;;;;;;17.85;12.45;;;;;;;19.83;100.00;101659.06;5219931;28;20029;-80
2021/08/18 11:00:37;;;;;;;17.48;12.13;;;;;;;19.52;100.00;101660.44;5224290;28;20067;-80
2021/08/18 11:03:22;;;;;;;15.30;11.90;;;;;;;19.45;100.00;101656.06;5224356;28;20088;-81
2021/08/18 11:05:53;;;;;;;;;;;;;;;19.09;100.00;101649.03;5224719;28;20033;-79
2021/08/18 11:08:40;;;;;;;18.02;11.65;;;;;;;19.28;100.00;101647.44;5223996;28;20366;-80
2021/08/18 11:11:13;;;;;;;16.27;10.63;;;;;;;19.34;100.00;101650.16;5224573;28;20041;-81
2021/08/18 11:13:52;;;;;;;16.10;11.85;;;;;;;19.58;100.00;101651.47;5227450;28;20078;-81
2021/08/18 11:16:30;;;;;;;21.30;10.20;;;;;;;19.83;100.00;101654.50;5236402;28;20036;-82
2021/08/18 11:19:06;;;;;;;14.98;11.02;;;;;;;20.18;100.00;101646.09;5236718;28;20024;-82
2021/08/18 11:21:40;;;;;;;24.90;10.57;;;;;;;20.46;100.00;101642.31;5236041;28;20033;-81
2021/08/18 11:24:13;;;;;;;13.27;9.83;;;;;;;20.97;100.00;101636.94;5229620;28;20098;-81